createdAt,value
2019-02-24T00:05:41.111Z,22.40
2019-02-24T00:11:45.555Z,23.47
2019-02-24T00:17:49.739Z,22.93
2019-02-24T00:23:54.044Z,24.27
2019-02-24T00:29:58.357Z,23.50
2019-02-24T00:36:02.670Z,23.00
2019-02-24T00:42:07.169Z,23.33
2019-02-24T00:48:11.441Z,22.45
2019-02-24T00:54:15.653Z,23.27
2019-02-24T01:00:19.932Z,23.30
2019-02-24T01:06:24.142Z,23.13
2019-02-24T01:12:28.366Z,24.23
2019-02-24T01:18:32.580Z,23.73
2019-02-24T01:24:36.854Z,24.20
2019-02-24T01:30:41.075Z,25.00
2019-02-24T01:36:45.344Z,23.90
2019-02-24T01:42:49.544Z,25.53
2019-02-24T01:48:54.148Z,26.17
2019-02-24T01:54:58.352Z,25.30
2019-02-24T02:01:02.540Z,25.87
2019-02-24T02:07:06.754Z,25.83
2019-02-24T02:13:11.074Z,25.43
2019-02-24T02:19:15.332Z,23.40
2019-02-24T02:25:19.633Z,24.87
2019-02-24T02:31:23.886Z,23.17
2019-02-24T02:37:28.095Z,25.07
2019-02-24T02:43:32.339Z,24.47
2019-02-24T02:49:36.631Z,24.93
2019-02-24T02:55:40.858Z,24.47
2019-02-24T03:01:45.219Z,24.30
2019-02-24T03:07:55.552Z,23.80
2019-02-24T03:14:00.167Z,22.90
2019-02-24T03:20:04.488Z,25.20
2019-02-24T03:26:08.724Z,25.13
2019-02-24T03:32:15.946Z,22.67
2019-02-24T03:38:20.144Z,23.90
2019-02-24T03:44:24.421Z,23.37
2019-02-24T03:50:28.621Z,23.87
2019-02-24T03:56:32.903Z,24.43
2019-02-24T04:02:37.127Z,21.90
2019-02-24T04:08:41.336Z,22.87
2019-02-24T04:14:45.531Z,22.60
2019-02-24T04:20:49.746Z,23.03
2019-02-24T04:26:54.011Z,21.67
2019-02-24T04:32:58.321Z,21.90
2019-02-24T04:39:02.708Z,24.07
2019-02-24T04:45:06.914Z,23.33
2019-02-24T04:51:11.118Z,21.33
2019-02-24T04:57:15.398Z,21.60
2019-02-24T05:03:19.666Z,21.17
2019-02-24T05:09:23.872Z,22.23
2019-02-24T05:15:28.111Z,21.90
2019-02-24T05:21:32.289Z,25.53
2019-02-24T05:27:36.604Z,22.93
2019-02-24T05:33:40.823Z,24.47
2019-02-24T05:39:45.148Z,24.83
2019-02-24T05:45:49.365Z,23.80
2019-02-24T05:51:53.778Z,23.80
2019-02-24T05:57:57.968Z,23.73
2019-02-24T06:04:02.369Z,22.23
2019-02-24T06:10:06.780Z,24.73
2019-02-24T06:16:11.040Z,26.93
2019-02-24T06:22:15.334Z,32.40
2019-02-24T06:28:19.514Z,26.83
2019-02-24T06:34:23.711Z,23.87
2019-02-24T06:40:28.061Z,25.47
2019-02-24T06:46:32.253Z,24.23
2019-02-24T06:52:36.530Z,27.60
2019-02-24T06:58:40.733Z,25.27
2019-02-24T07:04:45.100Z,25.70
2019-02-24T07:10:49.415Z,26.73
2019-02-24T07:16:53.621Z,27.33
2019-02-24T07:22:57.838Z,28.97
2019-02-24T07:29:02.423Z,26.80
2019-02-24T07:35:06.785Z,27.80
2019-02-24T07:41:11.018Z,24.97
2019-02-24T07:47:15.214Z,26.00
2019-02-24T07:53:19.427Z,24.13
2019-02-24T07:59:23.634Z,24.20
2019-02-24T08:05:27.866Z,21.70
2019-02-24T08:11:32.149Z,22.80
2019-02-24T08:17:36.374Z,25.03
2019-02-24T08:23:40.574Z,21.97
2019-02-24T08:29:45.044Z,21.40
2019-02-24T08:35:49.379Z,20.93
2019-02-24T08:41:53.653Z,18.63
2019-02-24T08:47:57.894Z,17.87
2019-02-24T08:54:02.090Z,18.12
2019-02-24T09:00:07.870Z,18.07
2019-02-24T09:06:12.070Z,18.27
2019-02-24T09:12:16.416Z,18.42
2019-02-24T09:18:20.638Z,18.45
2019-02-24T09:24:24.918Z,16.52
2019-02-24T09:30:29.254Z,16.35
2019-02-24T09:36:33.528Z,15.72
2019-02-24T09:42:37.774Z,14.53
2019-02-24T09:48:42.033Z,14.68
2019-02-24T09:54:46.323Z,13.65
2019-02-24T10:00:50.579Z,15.43
2019-02-24T10:06:54.816Z,16.02
2019-02-24T10:12:59.201Z,13.20
2019-02-24T10:19:03.840Z,15.00
2019-02-24T10:25:08.190Z,13.62
2019-02-24T10:31:19.620Z,12.10
2019-02-24T10:37:18.547Z,12.88
2019-02-24T10:43:22.918Z,12.70
2019-02-24T10:49:27.115Z,12.88
2019-02-24T10:55:31.524Z,11.12
2019-02-24T11:01:35.785Z,11.50
2019-02-24T11:07:40.161Z,12.55
2019-02-24T11:13:44.350Z,11.78
2019-02-24T11:19:48.597Z,11.97
2019-02-24T11:25:52.794Z,11.97
2019-02-24T11:31:57.982Z,11.28
2019-02-24T11:38:02.251Z,10.95
2019-02-24T11:44:06.679Z,11.60
2019-02-24T11:50:10.889Z,11.33
2019-02-24T11:56:15.266Z,12.30
2019-02-24T12:02:19.543Z,11.83
2019-02-24T12:08:23.912Z,10.63
2019-02-24T12:14:28.240Z,11.18
2019-02-24T12:20:32.482Z,10.48
2019-02-24T12:26:36.838Z,10.48
2019-02-24T12:32:41.206Z,8.95
2019-02-24T12:38:45.793Z,8.00
2019-02-24T12:44:50.073Z,9.30
2019-02-24T12:50:54.266Z,8.90
2019-02-24T12:56:58.503Z,8.58
2019-02-24T13:03:03.062Z,7.85
2019-02-24T13:09:10.218Z,8.25
2019-02-24T13:15:14.517Z,8.40
2019-02-24T13:21:18.838Z,7.50
2019-02-24T13:27:23.121Z,7.12
2019-02-24T13:33:27.447Z,8.08
2019-02-24T13:39:31.766Z,7.92
2019-02-24T13:45:36.134Z,7.45
2019-02-24T13:51:40.432Z,7.25
2019-02-24T13:57:44.746Z,7.03
2019-02-24T14:03:49.035Z,7.80
2019-02-24T14:09:53.374Z,7.67
2019-02-24T14:15:57.709Z,7.10
2019-02-24T14:22:02.013Z,6.65
2019-02-24T14:28:06.362Z,6.20
2019-02-24T14:34:10.669Z,6.78
2019-02-24T14:40:15.037Z,5.78
2019-02-24T14:46:19.364Z,5.83
2019-02-24T14:52:23.689Z,7.10
2019-02-24T14:58:27.913Z,8.30
2019-02-24T15:04:32.201Z,7.80
2019-02-24T15:10:36.485Z,7.47
2019-02-24T15:16:40.809Z,6.87
2019-02-24T15:22:45.152Z,7.90
2019-02-24T15:28:49.451Z,8.38
2019-02-24T15:34:53.771Z,8.23
2019-02-24T15:40:58.083Z,9.30
2019-02-24T15:47:02.421Z,9.00
2019-02-24T15:53:06.952Z,8.38
2019-02-24T15:59:11.286Z,8.53
2019-02-24T16:05:15.496Z,10.72
2019-02-24T16:11:19.778Z,10.40
2019-02-24T16:17:24.064Z,9.98
2019-02-24T16:23:28.280Z,12.35
2019-02-24T16:29:32.510Z,14.87
2019-02-24T16:35:36.931Z,10.58
2019-02-24T16:41:41.251Z,12.55
2019-02-24T16:47:45.579Z,13.80
2019-02-24T16:53:49.856Z,12.23
2019-02-24T16:59:54.129Z,12.95
2019-02-24T17:05:58.414Z,13.78
2019-02-24T17:12:02.642Z,15.80
2019-02-24T17:18:06.923Z,16.10
2019-02-24T17:24:11.156Z,21.00
2019-02-24T17:30:15.830Z,17.80
2019-02-24T17:36:20.208Z,14.35
2019-02-24T17:42:24.813Z,17.02
2019-02-24T17:48:29.132Z,19.12
2019-02-24T17:54:33.340Z,33.08
2019-02-24T18:00:43.320Z,13.70
2019-02-24T18:06:47.563Z,18.92
2019-02-24T18:12:51.873Z,15.35
2019-02-24T18:18:56.153Z,13.65
2019-02-24T18:25:03.080Z,17.87
2019-02-24T18:31:06.571Z,14.18
2019-02-24T18:37:10.817Z,14.85
2019-02-24T18:43:15.115Z,15.05
2019-02-24T18:49:19.408Z,16.35
2019-02-24T18:55:24.649Z,15.18
2019-02-24T19:01:28.860Z,16.27
2019-02-24T19:07:33.109Z,17.05
2019-02-24T19:13:37.393Z,17.87
2019-02-24T19:19:41.680Z,19.85
2019-02-24T19:25:45.877Z,23.52
2019-02-24T19:31:50.179Z,20.65
2019-02-24T19:37:54.437Z,20.00
2019-02-24T19:43:58.677Z,25.62
2019-02-24T19:50:02.933Z,20.85
2019-02-24T19:56:07.232Z,20.15
2019-02-24T20:02:11.748Z,20.02
2019-02-24T20:08:15.939Z,18.70
2019-02-24T20:14:20.130Z,19.17
2019-02-24T20:20:24.364Z,18.67
2019-02-24T20:26:28.685Z,18.70
2019-02-24T20:32:32.944Z,17.48
2019-02-24T20:38:37.163Z,16.67
2019-02-24T20:44:41.546Z,17.02
2019-02-24T20:50:45.820Z,17.77
2019-02-24T20:56:50.047Z,16.60
2019-02-24T21:02:54.360Z,17.35
2019-02-24T21:08:58.642Z,17.35
2019-02-24T21:15:02.850Z,16.57
2019-02-24T21:21:07.139Z,16.15
2019-02-24T21:27:11.349Z,15.55
2019-02-24T21:33:15.591Z,14.40
2019-02-24T21:39:19.831Z,14.68
2019-02-24T21:45:24.339Z,14.58
2019-02-24T21:51:28.639Z,15.43
2019-02-24T21:57:32.924Z,15.43
2019-02-24T22:03:37.195Z,15.20
2019-02-24T22:09:41.413Z,14.60
2019-02-24T22:15:45.624Z,14.70
2019-02-24T22:21:49.857Z,16.90
2019-02-24T22:27:54.073Z,16.80
2019-02-24T22:33:58.467Z,15.98
2019-02-24T22:40:02.817Z,16.40
2019-02-24T22:46:07.101Z,16.30
2019-02-24T22:52:11.305Z,15.18
2019-02-24T22:58:15.545Z,15.35
2019-02-24T23:04:19.880Z,16.25
2019-02-24T23:10:24.185Z,14.65
2019-02-24T23:16:28.454Z,13.75
2019-02-24T23:22:32.774Z,13.50
2019-02-24T23:28:36.982Z,15.40
2019-02-24T23:34:41.216Z,15.30
2019-02-24T23:40:45.512Z,14.87
2019-02-24T23:46:49.726Z,13.40
2019-02-24T23:52:53.930Z,15.20
2019-02-24T23:58:58.163Z,14.55
